• Join FlightAware (Why Join?)
  • Login
  • US Flag 
12:21AM EST


 

Airport Tracker/Info


-or-


 

Live Flight TrackerFlight Track Log ✈ JZA8813 ✈ 09-Nov-2013 ✈ CYQY - CYHZ

Flight Track Log - Related Links

Times and Time Zones

All times are in EST time to prevent confusion due to time zone crossing. See the JZA8813 flight status page for this flight to view local times or setup timezone preferences in your user account.

Time Position Orientation Groundspeed Altitude Reporting Facility
EST Latitude Longitude Course Direction KTS MPH feet Rate Location/Type
05:51PM 46.1500 -60.0167 246° West 110 127 500  Level Moncton Center
05:52PM 46.1167 -60.0500 215° Southwest 120 138 2,000 1,380 Climbing Moncton Center
05:53PM 46.1000 -60.1000 244° Southwest 140 161 3,300 1,260 Climbing Moncton Center
05:54PM 46.0833 -60.1667 250° West 160 184 4,600 1,200 Climbing Moncton Center
05:55PM 46.0500 -60.2167 226° Southwest 170 196 5,800 1,320 Climbing Moncton Center
05:56PM 46.0134 -60.4711 246° West  Level Estimated
05:56PM 46.0333 -60.3000 254° West 180 207 7,300  Level Moncton Center
05:57PM 46.0000 -60.3667 234° Southwest 190 219 8,500 1,200 Climbing Moncton Center
05:58PM 45.9833 -60.4167 244° Southwest 190 219 9,700 1,260 Climbing Moncton Center
05:59PM 45.9667 -60.5000 254° West 190 219 11,100 1,260 Climbing Moncton Center
06:00PM 45.9333 -60.5667 234° Southwest 190 219 12,300 1,260 Climbing Moncton Center
06:01PM 45.9167 -60.6500 254° West 190 219 13,700 1,200 Climbing Moncton Center
06:02PM 45.8833 -60.7167 234° Southwest 200 230 14,800 1,080 Climbing Moncton Center
06:03PM 45.8667 -60.7667 244° Southwest 190 219 15,900 600 Climbing Moncton Center
06:04PM 45.8333 -60.8500 240° Southwest 200 230 16,000  Climbing Moncton Center
06:05PM 45.8000 -60.9167 234° Southwest 220 253 16,000  Level Moncton Center
06:06PM 45.7667 -61.0167 244° Southwest 230 265 16,000  Level Moncton Center
06:07PM 45.7500 -61.0833 250° West 240 276 16,000 -120 Level Moncton Center
06:08PM 45.7167 -61.1833 245° Southwest 240 276 15,800 -120 Descending Moncton Center
06:09PM 45.7000 -61.2667 254° West 240 276 15,800  Level Moncton Center
06:10PM 45.6667 -61.3500 240° Southwest 230 265 15,800  Level Moncton Center
06:11PM 45.6333 -61.4333 240° Southwest 230 265 15,800 60 Level Moncton Center
06:12PM 45.6000 -61.5000 234° Southwest 230 265 16,000 60 Climbing Moncton Center
06:13PM 45.5667 -61.6000 245° Southwest 230 265 16,000  Level Moncton Center
06:14PM 45.5333 -61.6667 234° Southwest 230 265 16,000  Level Moncton Center
06:15PM 45.5333 -61.7500 270° West 220 253 16,000  Level Moncton Center
06:16PM 45.4833 -61.8500 235° Southwest 230 265 16,000  Level Moncton Center
06:17PM 45.4667 -61.9167 250° West 230 265 16,000  Level Moncton Center
06:18PM 45.4333 -61.9833 235° Southwest 230 265 16,000  Level Moncton Center
06:19PM 45.4000 -62.0833 245° Southwest 230 265 16,000  Level Moncton Center
06:20PM 45.3667 -62.1667 240° Southwest 230 265 16,000  Level Moncton Center
06:21PM 45.3333 -62.2333 235° Southwest 230 265 16,000  Level Moncton Center
06:22PM 45.3000 -62.3333 245° Southwest 230 265 16,000  Level Moncton Center
06:23PM 45.2667 -62.4000 235° Southwest 230 265 16,000 -120 Level Moncton Center
06:24PM 45.2333 -62.4667 235° Southwest 230 265 15,800 -840 Descending Moncton Center
06:25PM 45.2167 -62.5667 257° West 250 288 14,400 -1,440 Descending Moncton Center
06:26PM 45.1833 -62.6667 245° Southwest 270 311 13,000 -1,440 Descending Moncton Center
06:27PM 45.1333 -62.7333 223° Southwest 260 299 11,600 -1,380 Descending Moncton Center
06:28PM 45.1000 -62.8333 245° Southwest 260 299 10,300 -1,200 Descending Moncton Center
06:29PM 45.0500 -62.9000 223° Southwest 260 299 9,200 -1,260 Descending Moncton Center
06:30PM 45.0167 -63.0000 245° Southwest 260 299 7,800 -1,380 Descending Moncton Center
06:31PM 44.9833 -63.0667 235° Southwest 250 288 6,500 -1,380 Descending Moncton Center
06:32PM 44.9333 -63.1500 230° Southwest 220 253 5,100 -1,500 Descending Moncton Center
06:33PM 44.9000 -63.2167 235° Southwest 210 242 3,600 -1,380 Descending Moncton Center
06:34PM 44.8667 -63.2833 235° Southwest 200 230 2,400 -960 Descending Moncton Center
06:35PM 44.8500 -63.3667 254° West 180 207 1,700 -480 Descending Moncton Center
06:36PM 44.8500 -63.4000 270° West 120 138 1,500 -300 Descending Moncton Center
06:37PM 44.8500 -63.4500 270° West 110 127 1,200 -540 Descending Moncton Center
06:38PM 44.8667 -63.4833 305° West 100 115 500 -360 Descending Moncton Center
06:39PM 44.8833 -63.5167 305° West 90 104 500  Level Moncton Center